Time;durP1;ratioP1;P1;durP2;ratioP2;P2;SDS_P1;SDS_P2;PMS_P1;PMS_P2;Temp;Humidity;BMP_temperature;BMP_pressure;BME280_temperature;BME280_humidity;BME280_pressure;Samples;Min_cycle;Max_cycle;Signal;HPM_P1;HPM_P2
2023/07/29 00:01:49;;;;;;;5.18;4.47;;;;;;;19.67;100.00;99570.09;10296023;28;20027;-74
2023/07/29 00:06:50;;;;;;;5.47;4.47;;;;;;;19.72;100.00;99566.78;10327219;28;21456;-74
2023/07/29 00:11:52;;;;;;;5.72;5.13;;;;;;;19.70;100.00;99560.75;10328772;28;20065;-74
2023/07/29 00:16:55;;;;;;;5.38;4.97;;;;;;;19.73;100.00;99549.56;10283397;28;21037;-73
2023/07/29 00:21:57;;;;;;;5.90;5.50;;;;;;;19.79;100.00;99543.38;10318472;28;20304;-73
2023/07/29 00:26:58;;;;;;;5.22;4.72;;;;;;;19.79;100.00;99543.38;10326162;28;20068;-74
2023/07/29 00:32:00;;;;;;;6.03;4.80;;;;;;;19.74;100.00;99538.56;10328461;28;20061;-73
2023/07/29 00:37:01;;;;;;;5.55;3.67;;;;;;;19.74;100.00;99546.66;10330204;28;20140;-74
2023/07/29 00:42:04;;;;;;;5.50;4.05;;;;;;;19.71;100.00;99536.25;10353305;28;20105;-75
2023/07/29 00:47:06;;;;;;;4.60;4.20;;;;;;;19.71;100.00;99514.66;10366560;28;20092;-74
2023/07/29 00:52:11;;;;;;;4.65;4.18;;;;;;;19.69;100.00;99524.81;10324849;28;20131;-77
2023/07/29 00:57:15;;;;;;;4.55;3.55;;;;;;;19.72;100.00;99508.22;10326750;28;20056;-75
2023/07/29 01:02:16;;;;;;;4.30;3.90;;;;;;;19.69;100.00;99505.91;10327927;28;20483;-76
2023/07/29 01:07:30;;;;;;;4.35;3.95;;;;;;;19.72;100.00;99505.50;10333264;28;20056;-75
2023/07/29 01:12:50;;;;;;;5.63;3.80;;;;;;;19.77;100.00;99513.88;10349106;28;20044;-73
2023/07/29 01:18:02;;;;;;;5.80;3.70;;;;;;;19.80;100.00;99514.50;10329154;28;20350;-75
2023/07/29 01:23:04;;;;;;;4.85;4.03;;;;;;;19.76;100.00;99509.47;10319946;28;20512;-75
2023/07/29 01:28:05;;;;;;;4.65;3.95;;;;;;;19.73;100.00;99490.97;10318439;28;20064;-73
2023/07/29 01:33:15;;;;;;;4.85;3.92;;;;;;;19.78;100.00;99501.22;10321436;28;20053;-72
2023/07/29 01:38:23;;;;;;;3.88;3.35;;;;;;;19.76;100.00;99501.38;10303148;28;20048;-76
2023/07/29 01:43:25;;;;;;;3.50;3.17;;;;;;;19.76;100.00;99500.56;10324089;28;20054;-75
2023/07/29 01:48:30;;;;;;;8.25;3.75;;;;;;;19.76;100.00;99495.97;10320956;28;20057;-77
2023/07/29 01:53:31;;;;;;;4.82;3.63;;;;;;;19.72;100.00;99494.72;10318682;28;20049;-75
2023/07/29 01:58:33;;;;;;;6.10;3.25;;;;;;;19.76;100.00;99477.06;10320401;28;20277;-76
2023/07/29 02:03:34;;;;;;;3.97;2.88;;;;;;;19.75;100.00;99483.50;10312554;28;20159;-72
2023/07/29 02:08:36;;;;;;;3.70;3.40;;;;;;;19.73;100.00;99477.47;10313737;28;20053;-74
2023/07/29 02:13:37;;;;;;;3.25;2.95;;;;;;;19.73;100.00;99474.78;10317541;28;20050;-74
2023/07/29 02:18:38;;;;;;;3.22;2.35;;;;;;;19.74;100.00;99479.16;10314630;28;20130;-75
2023/07/29 02:23:40;;;;;;;2.80;2.60;;;;;;;19.80;100.00;99474.00;10317409;28;20062;-72
2023/07/29 02:28:41;;;;;;;4.25;2.47;;;;;;;19.81;100.00;99463.00;10316993;28;20060;-75
2023/07/29 02:33:43;;;;;;;4.32;2.85;;;;;;;19.83;100.00;99465.50;10313053;28;20156;-73
2023/07/29 02:38:45;;;;;;;3.55;2.70;;;;;;;19.79;100.00;99454.28;10320486;28;21229;-75
2023/07/29 02:43:50;;;;;;;3.13;2.35;;;;;;;19.86;100.00;99459.69;10317374;28;20321;-74
2023/07/29 02:48:51;;;;;;;3.40;2.28;;;;;;;19.85;100.00;99466.16;10322179;28;20050;-75
2023/07/29 02:53:53;;;;;;;2.45;1.67;;;;;;;19.83;100.00;99462.78;10322234;28;20107;-73
2023/07/29 02:58:54;;;;;;;4.03;2.70;;;;;;;19.82;100.00;99447.66;10316411;28;20195;-72
2023/07/29 03:03:56;;;;;;;4.35;2.08;;;;;;;19.81;100.00;99432.47;10324894;28;20054;-72
2023/07/29 03:08:57;;;;;;;3.85;2.22;;;;;;;19.81;100.00;99454.06;10327376;28;20732;-75
2023/07/29 03:13:59;;;;;;;3.85;2.47;;;;;;;19.77;100.00;99426.59;10323728;28;20061;-72
2023/07/29 03:19:00;;;;;;;3.03;2.50;;;;;;;19.71;100.00;99422.00;10322948;28;20246;-77
2023/07/29 03:24:02;;;;;;;5.30;3.00;;;;;;;19.69;100.00;99427.63;10320116;28;20054;-72
2023/07/29 03:29:03;;;;;;;2.53;2.15;;;;;;;19.67;100.00;99416.19;10324065;28;20054;-71
2023/07/29 03:34:04;;;;;;;2.25;1.90;;;;;;;19.67;100.00;99405.41;10332962;28;20061;-73
2023/07/29 03:39:07;;;;;;;2.20;2.00;;;;;;;19.65;100.00;99407.50;10334059;28;20084;-75
2023/07/29 03:44:08;;;;;;;3.30;2.30;;;;;;;19.67;100.00;99410.81;10362210;28;20054;-76
2023/07/29 03:49:10;;;;;;;2.70;1.98;;;;;;;19.60;100.00;99410.75;10350483;28;20478;-74
2023/07/29 03:54:12;;;;;;;2.70;1.80;;;;;;;19.57;100.00;99408.47;10325858;28;20679;-75
2023/07/29 03:59:13;;;;;;;2.80;2.55;;;;;;;19.60;100.00;99413.47;10318978;28;20057;-75
2023/07/29 04:04:15;;;;;;;2.55;1.75;;;;;;;19.60;100.00;99404.53;10316558;28;20671;-71
2023/07/29 04:09:17;;;;;;;2.92;1.80;;;;;;;19.65;100.00;99399.38;10314968;28;20072;-74
2023/07/29 04:14:18;;;;;;;3.35;1.95;;;;;;;19.65;100.00;99412.03;10318372;28;20064;-72
2023/07/29 04:19:20;;;;;;;3.03;2.08;;;;;;;19.62;100.00;99410.56;10318013;28;20060;-73
2023/07/29 04:24:23;;;;;;;4.00;2.08;;;;;;;19.60;100.00;99412.66;10317016;28;20045;-76
2023/07/29 04:29:24;;;;;;;2.77;2.07;;;;;;;19.58;100.00;99415.53;10317545;28;20549;-75
2023/07/29 04:34:26;;;;;;;2.35;1.50;;;;;;;19.61;100.00;99412.44;10322072;28;20038;-74
2023/07/29 04:39:27;;;;;;;3.83;2.53;;;;;;;19.60;100.00;99404.53;10326956;28;20056;-77
2023/07/29 04:44:28;;;;;;;2.50;1.77;;;;;;;19.56;100.00;99387.09;10325015;28;20049;-74
2023/07/29 04:49:30;;;;;;;3.75;2.38;;;;;;;19.58;100.00;99387.72;10318805;28;20073;-76
2023/07/29 04:54:31;;;;;;;2.38;2.17;;;;;;;19.60;100.00;99399.16;10326437;28;20072;-76
2023/07/29 04:59:32;;;;;;;2.53;2.10;;;;;;;19.57;100.00;99389.59;10324753;28;20193;-72
2023/07/29 05:04:34;;;;;;;3.00;1.85;;;;;;;19.55;100.00;99390.84;10323388;28;20064;-74
2023/07/29 05:09:35;;;;;;;4.05;2.17;;;;;;;19.60;100.00;99388.34;10321873;28;20054;-73
2023/07/29 05:14:37;;;;;;;2.60;2.40;;;;;;;19.64;100.00;99383.41;10313095;28;20134;-73
2023/07/29 05:19:39;;;;;;;2.83;2.50;;;;;;;19.65;100.00;99385.03;10317678;28;20058;-73
2023/07/29 05:24:40;;;;;;;4.60;2.55;;;;;;;19.62;100.00;99386.28;10316154;28;20143;-74
2023/07/29 05:29:42;;;;;;;3.33;2.25;;;;;;;19.63;100.00;99381.72;10322580;28;20100;-74
2023/07/29 05:34:43;;;;;;;3.35;2.70;;;;;;;19.65;100.00;99402.09;10320423;28;20050;-75
2023/07/29 05:39:45;;;;;;;3.05;1.80;;;;;;;19.68;100.00;99412.47;10324042;28;20133;-75
2023/07/29 05:44:46;;;;;;;4.10;2.75;;;;;;;19.69;100.00;99416.00;10324460;28;20576;-77
2023/07/29 05:49:47;;;;;;;3.35;2.30;;;;;;;19.61;100.00;99425.13;10321631;28;20405;-75
2023/07/29 05:54:49;;;;;;;3.08;2.40;;;;;;;19.63;100.00;99425.72;10333993;28;20061;-78
2023/07/29 05:59:50;;;;;;;5.43;2.42;;;;;;;19.64;100.00;99426.59;10355079;28;20050;-73
2023/07/29 06:04:52;;;;;;;2.92;2.65;;;;;;;19.65;100.00;99439.03;10329696;28;20057;-75
2023/07/29 06:09:55;;;;;;;3.35;3.05;;;;;;;19.66;100.00;99433.44;10326767;28;20586;-78
2023/07/29 06:14:56;;;;;;;3.83;3.08;;;;;;;19.69;100.00;99441.13;10324001;28;21593;-75
2023/07/29 06:19:58;;;;;;;3.10;2.80;;;;;;;19.65;100.00;99429.09;10329734;28;20102;-75
2023/07/29 06:24:59;;;;;;;3.15;2.85;;;;;;;19.69;100.00;99429.50;10335378;28;20523;-74
2023/07/29 06:30:01;;;;;;;3.05;2.80;;;;;;;19.64;100.00;99448.19;10336133;28;20479;-75
2023/07/29 06:35:02;;;;;;;3.72;3.30;;;;;;;19.63;100.00;99465.41;10335048;28;20057;-74
2023/07/29 06:40:05;;;;;;;3.55;2.80;;;;;;;19.64;100.00;99450.88;10350558;28;20129;-77
2023/07/29 06:45:07;;;;;;;5.20;3.38;;;;;;;19.57;100.00;99415.75;10389982;28;20036;-78
2023/07/29 06:50:08;;;;;;;3.65;2.63;;;;;;;19.64;100.00;99432.81;10331395;28;20532;-74
2023/07/29 06:55:10;;;;;;;3.17;2.42;;;;;;;19.62;100.00;99429.47;10325785;28;20834;-74
2023/07/29 07:00:11;;;;;;;1.90;1.80;;;;;;;19.64;100.00;99446.31;10324286;28;20058;-74
2023/07/29 07:05:13;;;;;;;2.53;2.10;;;;;;;19.66;100.00;99441.53;10326155;28;20131;-74
2023/07/29 07:10:14;;;;;;;2.60;2.40;;;;;;;19.66;100.00;99449.63;10332791;28;20501;-76
2023/07/29 07:15:16;;;;;;;3.53;3.17;;;;;;;19.57;100.00;99442.75;10332032;28;20815;-74
2023/07/29 07:20:17;;;;;;;4.13;3.55;;;;;;;19.61;100.00;99422.41;10335071;28;20056;-79
2023/07/29 07:25:19;;;;;;;5.68;4.40;;;;;;;19.66;100.00;99435.31;10345363;28;20033;-78
2023/07/29 07:30:20;;;;;;;3.95;3.65;;;;;;;19.65;100.00;99439.03;10344115;28;20062;-79
2023/07/29 07:35:22;;;;;;;3.95;3.65;;;;;;;19.65;100.00;99441.72;10333433;28;20066;-75
2023/07/29 07:40:24;;;;;;;5.80;4.05;;;;;;;19.68;100.00;99466.47;10340182;28;20551;-75
2023/07/29 07:45:25;;;;;;;5.22;3.50;;;;;;;19.70;100.00;99461.69;10346010;28;20081;-77
2023/07/29 07:50:30;;;;;;;4.20;3.75;;;;;;;19.71;100.00;99470.59;10335543;28;20060;-74
2023/07/29 07:55:31;;;;;;;4.03;3.72;;;;;;;19.72;100.00;99473.09;10343387;28;20591;-78
2023/07/29 08:00:33;;;;;;;5.45;4.22;;;;;;;19.70;100.00;99464.38;10332230;28;20057;-79
2023/07/29 08:05:34;;;;;;;4.05;3.65;;;;;;;19.70;100.00;99480.59;10352303;28;21575;-76
2023/07/29 08:10:36;;;;;;;4.00;3.70;;;;;;;19.69;100.00;99478.09;10338639;28;20062;-73
2023/07/29 08:15:41;;;;;;;6.07;4.25;;;;;;;19.68;100.00;99482.66;10326350;28;20057;-83
2023/07/29 08:20:57;;;;;;;3.47;3.17;;;;;;;19.72;100.00;99475.81;10339679;28;20054;-74
2023/07/29 08:26:01;;;;;;;3.65;3.20;;;;;;;19.87;100.00;99477.56;10323675;28;20454;-72
2023/07/29 08:31:04;;;;;;;3.38;3.08;;;;;;;20.01;100.00;99468.47;10321991;28;20650;-77
2023/07/29 08:36:05;;;;;;;3.35;2.55;;;;;;;20.18;100.00;99487.00;10329828;28;20049;-76
2023/07/29 08:41:16;;;;;;;3.03;2.60;;;;;;;20.29;100.00;99470.16;10325302;28;20184;-76
2023/07/29 08:46:19;;;;;;;3.03;2.42;;;;;;;20.46;100.00;99459.78;10324427;28;20081;-75
2023/07/29 08:51:23;;;;;;;3.23;2.77;;;;;;;20.59;100.00;99459.78;10338901;28;20934;-77
2023/07/29 08:56:24;;;;;;;2.78;1.92;;;;;;;20.73;100.00;99476.88;10316671;28;20061;-75
2023/07/29 09:01:26;;;;;;;3.42;1.98;;;;;;;20.81;100.00;99481.25;10317818;28;20120;-77
2023/07/29 09:06:28;;;;;;;1.88;1.77;;;;;;;21.02;100.00;99478.28;10319346;28;20053;-74
2023/07/29 09:11:30;;;;;;;2.10;1.27;;;;;;;21.24;100.00;99458.25;10314208;28;20898;-81
2023/07/29 09:16:33;;;;;;;2.08;1.10;;;;;;;21.60;100.00;99470.44;10326136;28;20645;-77
2023/07/29 09:21:39;;;;;;;3.03;1.60;;;;;;;21.62;100.00;99471.06;10335802;28;20779;-77
2023/07/29 09:26:48;;;;;;;3.15;1.52;;;;;;;21.79;99.62;99464.09;10301683;28;20423;-87
2023/07/29 09:31:49;;;;;;;1.33;0.82;;;;;;;22.04;99.82;99463.38;10318817;28;20050;-82
2023/07/29 09:36:51;;;;;;;1.48;0.73;;;;;;;22.05;95.54;99465.00;10336339;28;20048;-77
2023/07/29 09:41:53;;;;;;;0.77;0.50;;;;;;;22.10;93.00;99467.91;10344934;28;20137;-75
2023/07/29 09:46:54;;;;;;;1.65;0.50;;;;;;;21.98;90.03;99464.19;10337453;28;20756;-76
2023/07/29 09:51:56;;;;;;;2.33;0.40;;;;;;;21.98;92.21;99467.75;10316797;28;26744;-73
2023/07/29 09:56:57;;;;;;;0.52;0.38;;;;;;;22.21;89.15;99469.91;10312306;28;20076;-74
2023/07/29 10:01:59;;;;;;;0.85;0.50;;;;;;;22.35;87.63;99467.97;10310859;28;20759;-72
2023/07/29 10:07:01;;;;;;;1.13;0.60;;;;;;;22.34;87.45;99482.56;10313742;28;20058;-76
2023/07/29 10:12:06;;;;;;;2.35;0.63;;;;;;;22.33;88.69;99461.09;10313071;28;20100;-71
2023/07/29 10:17:08;;;;;;;1.13;0.70;;;;;;;22.44;86.70;99454.13;10321380;28;20649;-73
2023/07/29 10:22:11;;;;;;;2.20;0.57;;;;;;;22.75;85.49;99447.81;10317409;28;20438;-74
2023/07/29 10:27:17;;;;;;;0.82;0.50;;;;;;;22.98;84.75;99440.91;10320853;28;20054;-73
2023/07/29 10:32:22;;;;;;;0.85;0.45;;;;;;;23.25;83.08;99442.31;10319003;28;20124;-78
2023/07/29 10:37:24;;;;;;;0.85;0.38;;;;;;;23.35;83.40;99438.25;10348278;28;20053;-74
2023/07/29 10:42:25;;;;;;;4.15;0.70;;;;;;;23.80;81.87;99437.88;10318398;28;20073;-73
2023/07/29 10:47:28;;;;;;;1.08;0.60;;;;;;;23.93;76.26;99437.72;10312600;28;20160;-73
2023/07/29 10:52:34;;;;;;;1.30;0.80;;;;;;;23.64;78.64;99445.63;10313175;28;20123;-76
2023/07/29 10:57:37;;;;;;;2.15;0.85;;;;;;;23.89;76.24;99441.13;10313367;28;20263;-72
2023/07/29 11:02:39;;;;;;;0.80;0.52;;;;;;;24.07;76.61;99432.91;10317137;28;20164;-73
2023/07/29 11:07:45;;;;;;;1.80;0.80;;;;;;;24.24;75.11;99440.41;10325493;28;20057;-75
2023/07/29 11:12:58;;;;;;;2.55;1.08;;;;;;;23.87;73.04;99438.66;10301738;28;20045;-74
2023/07/29 11:18:01;;;;;;;1.90;1.00;;;;;;;23.60;79.86;99425.41;10287683;28;20054;-75
2023/07/29 11:23:03;;;;;;;1.52;1.10;;;;;;;23.43;81.27;99418.91;10267260;28;20129;-75
2023/07/29 11:28:05;;;;;;;1.20;0.60;;;;;;;23.28;83.42;99435.59;10267222;28;20121;-75
2023/07/29 11:33:20;;;;;;;2.25;1.17;;;;;;;23.35;83.74;99416.53;10289475;28;20054;-76
2023/07/29 11:38:26;;;;;;;1.75;0.90;;;;;;;23.72;82.82;99419.16;10244867;28;20136;-74
2023/07/29 11:43:29;;;;;;;0.80;0.70;;;;;;;24.13;79.73;99421.09;10292003;28;20726;-77
2023/07/29 11:48:37;;;;;;;1.20;0.73;;;;;;;24.78;73.58;99435.75;10293827;28;20057;-76
2023/07/29 11:53:43;;;;;;;0.77;0.60;;;;;;;25.05;70.28;99427.91;10279505;28;20064;-79
2023/07/29 11:58:45;;;;;;;0.73;0.40;;;;;;;25.16;70.91;99414.53;10262672;28;20061;-78
2023/07/29 12:03:47;;;;;;;1.50;0.70;;;;;;;25.34;68.16;99414.41;10320966;28;20141;-77
2023/07/29 12:08:48;;;;;;;1.30;0.63;;;;;;;25.34;71.51;99413.56;10320023;28;20425;-77
2023/07/29 12:13:55;;;;;;;1.95;0.90;;;;;;;25.18;68.63;99415.13;10323118;28;20053;-78
2023/07/29 12:19:00;;;;;;;1.92;0.90;;;;;;;25.55;68.08;99388.41;10322892;28;20140;-75
2023/07/29 12:24:02;;;;;;;1.20;0.77;;;;;;;25.55;64.33;99387.56;10332241;28;20139;-75
2023/07/29 12:29:14;;;;;;;1.63;1.07;;;;;;;25.44;64.24;99383.81;10330174;28;20057;-76
2023/07/29 12:34:20;;;;;;;0.90;0.77;;;;;;;25.38;63.37;99382.88;10311937;28;20056;-75
2023/07/29 12:39:24;;;;;;;2.70;0.90;;;;;;;25.42;64.76;99385.97;10310777;28;20049;-74
2023/07/29 12:44:29;;;;;;;3.13;1.05;;;;;;;25.60;62.18;99379.50;10322271;28;20058;-74
2023/07/29 12:49:31;;;;;;;0.93;0.63;;;;;;;25.67;63.33;99369.28;10327216;28;20763;-73
2023/07/29 12:54:32;;;;;;;1.13;0.80;;;;;;;25.57;60.25;99369.09;10331412;28;20488;-74
2023/07/29 12:59:34;;;;;;;1.30;0.70;;;;;;;25.58;62.33;99387.06;10319015;28;20057;-73
2023/07/29 13:04:35;;;;;;;0.80;0.60;;;;;;;25.42;57.14;99377.78;10319877;28;20046;-70
2023/07/29 13:09:37;;;;;;;2.55;0.80;;;;;;;25.27;60.91;99363.84;10313944;28;20369;-69
2023/07/29 13:14:38;;;;;;;1.63;0.85;;;;;;;25.12;57.27;99376.06;10317912;28;20065;-74
2023/07/29 13:19:39;;;;;;;3.03;1.40;;;;;;;24.97;57.92;99365.69;10327878;28;20148;-76
2023/07/29 13:24:41;;;;;;;4.82;1.40;;;;;;;24.88;59.71;99376.09;10321970;28;20058;-75
2023/07/29 13:29:43;;;;;;;2.63;1.02;;;;;;;24.86;59.69;99380.13;10309890;28;20057;-75
2023/07/29 13:34:44;;;;;;;2.75;1.02;;;;;;;24.97;59.40;99376.56;10321296;28;20045;-75
2023/07/29 13:39:46;;;;;;;1.38;1.02;;;;;;;25.29;58.87;99367.97;10327783;28;20598;-74
2023/07/29 13:44:47;;;;;;;1.75;1.00;;;;;;;25.46;58.83;99367.22;10323082;28;20052;-75
2023/07/29 13:49:49;;;;;;;1.98;0.80;;;;;;;25.45;56.58;99376.50;10320936;28;20050;-75
2023/07/29 13:54:50;;;;;;;1.75;0.70;;;;;;;25.63;56.34;99372.75;10323239;28;20234;-74
2023/07/29 13:59:52;;;;;;;1.52;0.75;;;;;;;25.72;56.00;99377.53;10318473;28;20053;-76
2023/07/29 14:04:53;;;;;;;2.53;1.17;;;;;;;25.70;57.10;99374.25;10326072;28;20580;-74
2023/07/29 14:09:54;;;;;;;1.92;1.08;;;;;;;25.62;55.56;99388.25;10336404;28;20071;-75
2023/07/29 14:14:56;;;;;;;0.90;0.70;;;;;;;25.63;54.97;99389.91;10332383;28;20061;-73
2023/07/29 14:19:58;;;;;;;1.83;1.08;;;;;;;25.65;54.18;99382.31;10336708;28;20420;-73
2023/07/29 14:24:59;;;;;;;1.25;1.00;;;;;;;25.61;53.53;99400.19;10326434;28;20568;-70
2023/07/29 14:30:02;;;;;;;1.00;0.68;;;;;;;25.59;53.19;99394.19;10323661;28;20053;-73
2023/07/29 14:35:04;;;;;;;2.40;0.97;;;;;;;25.56;53.81;99386.50;10331703;28;20085;-73
2023/07/29 14:40:06;;;;;;;1.00;0.70;;;;;;;25.62;54.42;99399.13;10337755;28;20543;-72
2023/07/29 14:45:08;;;;;;;1.25;0.80;;;;;;;25.69;53.25;99383.47;10334027;28;20053;-73
2023/07/29 14:50:09;;;;;;;2.20;0.70;;;;;;;25.71;50.55;99369.59;10354152;28;20121;-71
2023/07/29 14:55:10;;;;;;;1.25;0.70;;;;;;;25.76;51.65;99378.72;10334676;28;20057;-72
2023/07/29 15:00:12;;;;;;;2.15;0.55;;;;;;;25.74;49.70;99363.66;10326712;28;20053;-73
2023/07/29 15:05:14;;;;;;;1.52;0.90;;;;;;;25.73;50.19;99365.56;10324752;28;20054;-73
2023/07/29 15:10:16;;;;;;;1.15;0.60;;;;;;;25.79;49.19;99376.56;10329109;28;20555;-73
2023/07/29 15:15:18;;;;;;;1.13;0.93;;;;;;;25.73;50.41;99368.28;10346047;28;20049;-74
2023/07/29 15:20:19;;;;;;;1.52;0.93;;;;;;;25.77;48.52;99369.44;10378612;28;20681;-72
2023/07/29 15:25:20;;;;;;;1.70;0.85;;;;;;;25.71;48.22;99370.41;10323052;28;20074;-73
2023/07/29 15:30:22;;;;;;;1.98;0.88;;;;;;;25.68;48.80;99370.91;10332823;28;20066;-74
2023/07/29 15:35:23;;;;;;;1.08;0.98;;;;;;;25.72;49.29;99372.09;10349093;28;20066;-74
2023/07/29 15:40:24;;;;;;;1.50;1.02;;;;;;;25.63;48.04;99378.19;10342854;28;20053;-75
2023/07/29 15:45:26;;;;;;;3.10;1.00;;;;;;;25.49;47.03;99377.63;10348873;28;20061;-73
2023/07/29 15:50:28;;;;;;;1.15;0.90;;;;;;;25.43;47.33;99384.88;10349139;28;20050;-76
2023/07/29 15:55:29;;;;;;;2.33;1.73;;;;;;;25.39;47.08;99376.38;10348003;28;20492;-72
2023/07/29 16:00:31;;;;;;;2.42;1.17;;;;;;;25.42;46.73;99372.34;10342513;28;20054;-73
2023/07/29 16:05:32;;;;;;;1.40;1.08;;;;;;;25.40;47.03;99372.59;10347190;28;20065;-74
2023/07/29 16:10:34;;;;;;;1.50;1.00;;;;;;;25.42;46.95;99383.25;10355852;28;20058;-74
2023/07/29 16:15:35;;;;;;;2.95;0.90;;;;;;;25.42;48.34;99377.78;10353976;28;20144;-74
2023/07/29 16:20:37;;;;;;;3.30;0.95;;;;;;;25.42;47.55;99366.91;10357405;28;20108;-73
2023/07/29 16:25:38;;;;;;;0.80;0.55;;;;;;;25.48;46.86;99370.56;10348025;28;20050;-74
2023/07/29 16:30:40;;;;;;;0.90;0.73;;;;;;;25.40;46.43;99375.31;10346593;28;20054;-74
2023/07/29 16:35:41;;;;;;;2.22;1.23;;;;;;;25.37;46.01;99392.13;10350794;28;20042;-73
2023/07/29 16:40:43;;;;;;;0.88;0.70;;;;;;;25.39;45.82;99379.09;10349526;28;20109;-73
2023/07/29 16:46:04;;;;;;;1.20;0.90;;;;;;;25.35;46.33;99372.47;10314601;28;20136;-72
2023/07/29 16:51:08;;;;;;;0.98;0.75;;;;;;;25.33;46.34;99371.91;10311312;28;20056;-71
2023/07/29 16:56:09;;;;;;;1.08;0.75;;;;;;;25.26;46.19;99381.25;10332816;28;20061;-72
2023/07/29 17:01:10;;;;;;;1.50;0.90;;;;;;;25.20;46.88;99385.75;10335459;28;20089;-75
2023/07/29 17:06:12;;;;;;;0.95;0.65;;;;;;;25.18;47.31;99388.72;10332906;28;20053;-74
2023/07/29 17:11:13;;;;;;;1.25;0.70;;;;;;;25.20;47.43;99385.75;10338697;28;20084;-77
2023/07/29 17:16:15;;;;;;;2.88;1.23;;;;;;;25.19;46.37;99384.09;10345546;28;20120;-75
2023/07/29 17:21:16;;;;;;;1.13;0.60;;;;;;;25.17;47.01;99383.50;10332880;28;20080;-75
2023/07/29 17:26:18;;;;;;;1.15;0.95;;;;;;;25.13;47.16;99385.91;10336637;28;20104;-75
2023/07/29 17:31:19;;;;;;;2.30;0.73;;;;;;;25.08;48.00;99401.28;10342237;28;20060;-72
2023/07/29 17:36:21;;;;;;;0.93;0.70;;;;;;;25.00;46.76;99386.97;10340068;28;20132;-77
2023/07/29 17:41:23;;;;;;;1.38;0.80;;;;;;;25.01;48.17;99383.19;10344575;28;20073;-75
2023/07/29 17:46:24;;;;;;;1.08;0.73;;;;;;;25.00;47.36;99386.97;10345456;28;20045;-74
2023/07/29 17:51:26;;;;;;;0.60;0.55;;;;;;;24.94;47.76;99384.41;10341578;28;20261;-74
2023/07/29 17:56:28;;;;;;;0.95;0.77;;;;;;;24.91;48.10;99388.41;10354816;28;20150;-75
2023/07/29 18:01:29;;;;;;;0.80;0.75;;;;;;;24.90;48.54;99394.09;10363065;28;20073;-75
2023/07/29 18:06:31;;;;;;;1.80;1.02;;;;;;;24.83;48.81;99391.50;10392513;28;20061;-75
2023/07/29 18:11:32;;;;;;;2.53;0.90;;;;;;;24.78;48.14;99389.50;10349810;28;20060;-76
2023/07/29 18:16:35;;;;;;;1.38;0.80;;;;;;;24.77;49.50;99397.88;10360235;28;20550;-76
2023/07/29 18:21:37;;;;;;;1.98;1.02;;;;;;;24.72;49.27;99408.69;10365741;28;20057;-74
2023/07/29 18:26:39;;;;;;;1.10;0.80;;;;;;;24.65;48.61;99401.47;10366708;28;20119;-75
2023/07/29 18:31:40;;;;;;;2.43;1.00;;;;;;;24.61;49.13;99402.19;10359478;28;20106;-74
2023/07/29 18:36:42;;;;;;;2.30;1.25;;;;;;;24.60;50.58;99412.22;10354479;28;20080;-75
2023/07/29 18:41:46;;;;;;;10.50;8.45;;;;;;;24.53;50.38;99412.31;10362284;28;20054;-74
2023/07/29 18:46:48;;;;;;;4.05;3.38;;;;;;;24.54;51.42;99426.72;10370340;28;20084;-75
2023/07/29 18:51:51;;;;;;;7.03;4.80;;;;;;;24.51;51.86;99424.47;10348862;28;20055;-76
2023/07/29 18:56:53;;;;;;;3.67;3.25;;;;;;;24.48;51.97;99431.22;10346650;28;20073;-73
2023/07/29 19:01:54;;;;;;;4.07;3.33;;;;;;;24.44;52.83;99438.19;10346338;28;20046;-75
2023/07/29 19:06:56;;;;;;;7.50;5.00;;;;;;;24.37;52.99;99442.91;10338882;28;20054;-75
2023/07/29 19:11:57;;;;;;;2.38;1.77;;;;;;;24.26;52.16;99433.69;10342304;28;20066;-75
2023/07/29 19:16:58;;;;;;;2.58;1.55;;;;;;;24.14;52.77;99447.25;10345238;28;20064;-75
2023/07/29 19:22:00;;;;;;;1.70;1.50;;;;;;;24.17;52.18;99454.13;10339082;28;20068;-75
2023/07/29 19:27:03;;;;;;;1.88;1.10;;;;;;;24.09;52.76;99452.53;10339758;28;20073;-77
2023/07/29 19:32:07;;;;;;;2.05;1.52;;;;;;;24.09;52.29;99468.03;10335723;28;20057;-77
2023/07/29 19:37:11;;;;;;;1.40;1.10;;;;;;;23.99;52.81;99468.59;10336695;28;20064;-74
2023/07/29 19:42:12;;;;;;;2.03;1.27;;;;;;;23.98;53.20;99473.19;10335319;28;20057;-73
2023/07/29 19:47:14;;;;;;;1.92;1.08;;;;;;;23.96;53.99;99456.28;10335091;28;20496;-73
2023/07/29 19:52:15;;;;;;;2.05;1.02;;;;;;;23.90;53.44;99470.81;10333858;28;20080;-74
2023/07/29 19:57:17;;;;;;;2.05;1.15;;;;;;;23.88;54.38;99472.91;10332218;28;20050;-75
2023/07/29 20:02:18;;;;;;;1.33;1.23;;;;;;;23.83;54.03;99459.16;10337552;28;20048;-75
2023/07/29 20:07:20;;;;;;;3.17;1.25;;;;;;;23.85;55.11;99459.78;10333095;28;20117;-74
2023/07/29 20:12:22;;;;;;;1.50;0.83;;;;;;;23.81;56.24;99461.28;10337087;28;20049;-72
2023/07/29 20:17:24;;;;;;;1.95;1.20;;;;;;;23.80;56.59;99465.88;10338599;28;20056;-73
2023/07/29 20:22:25;;;;;;;1.40;0.90;;;;;;;23.77;56.43;99470.94;10342434;28;20060;-75
2023/07/29 20:27:26;;;;;;;3.45;1.20;;;;;;;23.72;57.42;99468.06;10332899;28;20603;-74
2023/07/29 20:32:28;;;;;;;1.30;1.20;;;;;;;23.70;56.47;99475.63;10340074;28;20479;-75
2023/07/29 20:37:29;;;;;;;1.13;0.98;;;;;;;23.62;56.42;99488.47;10340394;28;20065;-73
2023/07/29 20:42:31;;;;;;;1.65;1.45;;;;;;;23.64;58.08;99489.09;10338779;28;20049;-75
2023/07/29 20:47:33;;;;;;;1.55;1.27;;;;;;;23.62;58.03;99493.06;10336035;28;20081;-74
2023/07/29 20:52:35;;;;;;;1.70;1.13;;;;;;;23.55;59.01;99485.00;10352239;28;20054;-75
2023/07/29 20:57:36;;;;;;;1.85;1.40;;;;;;;23.59;59.22;99496.25;10371806;28;20404;-74
2023/07/29 21:02:38;;;;;;;2.00;1.75;;;;;;;23.52;58.75;99488.16;10335763;28;20418;-76
2023/07/29 21:07:39;;;;;;;1.95;1.40;;;;;;;23.48;59.02;99501.38;10327655;28;20116;-74
2023/07/29 21:12:42;;;;;;;2.58;1.58;;;;;;;23.46;58.56;99513.50;10342846;28;20045;-73
2023/07/29 21:17:44;;;;;;;2.58;1.88;;;;;;;23.42;59.33;99506.88;10333010;28;20176;-74
2023/07/29 21:22:45;;;;;;;4.47;2.28;;;;;;;23.40;58.61;99500.84;10334748;28;20058;-74
2023/07/29 21:27:46;;;;;;;2.33;1.73;;;;;;;23.34;59.21;99494.44;10333859;28;20054;-75
2023/07/29 21:32:48;;;;;;;2.15;1.80;;;;;;;23.34;59.07;99496.31;10328852;28;20092;-75
2023/07/29 21:37:50;;;;;;;2.55;1.90;;;;;;;23.33;59.19;99505.50;10333987;28;20077;-74
2023/07/29 21:42:51;;;;;;;3.42;2.08;;;;;;;23.28;59.88;99523.34;10332941;28;20053;-75
2023/07/29 21:47:52;;;;;;;2.40;1.67;;;;;;;23.25;60.00;99523.75;10332028;28;20050;-76
2023/07/29 21:52:54;;;;;;;3.03;2.20;;;;;;;23.17;61.33;99510.47;10329775;28;20056;-75
2023/07/29 21:57:55;;;;;;;3.13;1.83;;;;;;;23.19;61.29;99527.38;10332896;28;20057;-76
2023/07/29 22:02:56;;;;;;;3.65;2.03;;;;;;;23.16;62.15;99533.25;10333908;28;20069;-75
2023/07/29 22:07:58;;;;;;;2.97;1.70;;;;;;;23.14;61.13;99531.84;10332937;28;20049;-76
2023/07/29 22:13:03;;;;;;;3.13;2.20;;;;;;;23.08;61.13;99541.66;10334391;28;20068;-75
2023/07/29 22:18:05;;;;;;;3.22;2.20;;;;;;;23.09;62.47;99546.03;10335578;28;20053;-75
2023/07/29 22:23:06;;;;;;;4.70;2.40;;;;;;;23.07;61.29;99545.41;10331807;28;20057;-73
2023/07/29 22:28:09;;;;;;;2.47;1.90;;;;;;;23.00;62.19;99541.91;10328322;28;20324;-72
2023/07/29 22:33:10;;;;;;;2.80;1.13;;;;;;;22.95;63.22;99535.31;10334156;28;20666;-76
2023/07/29 22:38:13;;;;;;;2.25;1.80;;;;;;;22.92;64.08;99519.47;10338651;28;20288;-71
2023/07/29 22:43:14;;;;;;;2.13;1.55;;;;;;;22.93;64.83;99512.97;10331283;28;20141;-73
2023/07/29 22:48:16;;;;;;;3.80;1.70;;;;;;;22.92;64.55;99515.91;10328117;28;20100;-74
2023/07/29 22:53:18;;;;;;;2.55;1.63;;;;;;;22.87;65.31;99522.00;10331275;28;20072;-72
2023/07/29 22:58:20;;;;;;;4.72;2.05;;;;;;;22.89;65.90;99530.75;10349260;28;20242;-76
2023/07/29 23:03:22;;;;;;;3.65;2.15;;;;;;;22.82;65.97;99523.72;10360883;28;20054;-76
2023/07/29 23:08:24;;;;;;;2.97;2.50;;;;;;;22.80;65.81;99515.78;10340378;28;20552;-75
2023/07/29 23:13:25;;;;;;;2.58;1.92;;;;;;;22.78;66.98;99517.91;10338648;28;20351;-75
2023/07/29 23:18:27;;;;;;;3.33;2.40;;;;;;;22.77;67.07;99532.50;10337482;28;20500;-72